createdAt,value
2018-03-17T00:00:31.742Z,84.31
2018-03-17T00:01:31.736Z,84.31
2018-03-17T00:02:31.731Z,84.50
2018-03-17T00:03:31.726Z,84.59
2018-03-17T00:04:31.721Z,84.78
2018-03-17T00:05:31.715Z,84.69
2018-03-17T00:06:31.711Z,84.41
2018-03-17T00:07:31.713Z,84.98
2018-03-17T00:08:31.702Z,84.31
2018-03-17T00:09:31.743Z,84.59
2018-03-17T00:10:31.693Z,84.69
2018-03-17T00:11:31.694Z,84.41
2018-03-17T00:12:31.682Z,84.88
2018-03-17T00:13:31.676Z,84.88
2018-03-17T00:14:31.674Z,85.22
2018-03-17T00:15:31.667Z,84.74
2018-03-17T00:16:31.665Z,85.13
2018-03-17T00:17:31.657Z,85.69
2018-03-17T00:18:31.651Z,85.41
2018-03-17T00:19:31.646Z,85.97
2018-03-17T00:20:31.643Z,85.60
2018-03-17T00:21:31.636Z,86.16
2018-03-17T00:22:31.631Z,85.69
2018-03-17T00:23:31.627Z,85.50
2018-03-17T00:24:31.622Z,86.07
2018-03-17T00:25:31.617Z,86.16
2018-03-17T00:26:31.612Z,86.55
2018-03-17T00:27:31.607Z,86.83
2018-03-17T00:28:31.603Z,86.74
2018-03-17T00:29:31.597Z,86.16
2018-03-17T00:30:31.591Z,86.83
2018-03-17T00:31:31.587Z,86.83
2018-03-17T00:32:31.583Z,86.93
2018-03-17T00:33:31.578Z,86.74
2018-03-17T00:34:31.571Z,86.45
2018-03-17T00:35:31.566Z,86.07
2018-03-17T00:36:31.561Z,86.64
2018-03-17T00:37:31.555Z,86.26
2018-03-17T00:38:31.551Z,86.16
2018-03-17T00:39:31.545Z,86.74
2018-03-17T00:40:31.542Z,86.74
2018-03-17T00:41:31.535Z,87.49
2018-03-17T00:42:31.530Z,87.02
2018-03-17T00:43:31.525Z,87.59
2018-03-17T00:44:31.519Z,87.87
2018-03-17T00:45:31.513Z,87.68
2018-03-17T00:46:31.509Z,87.59
2018-03-17T00:47:31.504Z,87.87
2018-03-17T00:48:31.498Z,87.68
2018-03-17T00:49:31.491Z,87.97
2018-03-17T00:50:31.487Z,87.97
2018-03-17T00:51:31.482Z,87.68
2018-03-17T00:52:31.476Z,87.21
2018-03-17T00:53:31.471Z,87.30
2018-03-17T00:54:31.467Z,87.12
2018-03-17T00:55:31.459Z,87.59
2018-03-17T00:56:31.457Z,87.97
2018-03-17T00:57:31.462Z,88.54
2018-03-17T00:58:31.445Z,88.16
2018-03-17T00:59:31.440Z,87.87
2018-03-17T01:00:31.435Z,87.30
2018-03-17T01:01:31.428Z,87.49
2018-03-17T01:02:31.423Z,86.83
2018-03-17T01:03:31.418Z,86.26
2018-03-17T01:04:31.413Z,86.26
2018-03-17T01:05:31.406Z,86.16
2018-03-17T01:06:31.401Z,85.97
2018-03-17T01:07:31.397Z,85.97
2018-03-17T01:08:31.392Z,86.16
2018-03-17T01:09:31.384Z,85.69
2018-03-17T01:10:31.380Z,85.88
2018-03-17T01:11:31.375Z,85.97
2018-03-17T01:12:31.373Z,86.45
2018-03-17T01:13:31.364Z,86.45
2018-03-17T01:14:31.367Z,86.16
2018-03-17T01:15:31.354Z,86.93
2018-03-17T01:16:31.349Z,86.93
2018-03-17T01:17:31.342Z,87.12
2018-03-17T01:18:31.337Z,87.30
2018-03-17T01:19:31.332Z,87.30
2018-03-17T01:20:31.328Z,87.30
2018-03-17T01:21:31.323Z,87.30
2018-03-17T01:22:31.317Z,87.21
2018-03-17T01:23:31.311Z,86.74
2018-03-17T01:24:31.306Z,86.74
2018-03-17T01:25:31.300Z,86.83
2018-03-17T01:26:31.295Z,86.55
2018-03-17T01:27:31.290Z,86.64
2018-03-17T01:28:31.286Z,86.83
2018-03-17T01:29:31.279Z,86.16
2018-03-17T01:30:31.274Z,86.26
2018-03-17T01:31:31.269Z,86.07
2018-03-17T01:32:31.264Z,86.55
2018-03-17T01:33:31.258Z,86.35
2018-03-17T01:34:31.253Z,86.07
2018-03-17T01:35:31.247Z,86.55
2018-03-17T01:36:31.243Z,86.45
2018-03-17T01:37:31.237Z,86.26
2018-03-17T01:38:31.232Z,86.45
2018-03-17T01:39:31.226Z,86.74
2018-03-17T01:40:31.221Z,87.02
2018-03-17T01:41:31.215Z,86.93
2018-03-17T01:42:31.225Z,86.93
2018-03-17T01:43:31.206Z,86.93
2018-03-17T01:44:31.199Z,87.12
2018-03-17T01:45:31.194Z,87.40
2018-03-17T01:46:31.193Z,87.68
2018-03-17T01:47:31.183Z,87.12
2018-03-17T01:48:31.178Z,87.49
2018-03-17T01:49:31.171Z,87.21
2018-03-17T01:50:31.168Z,87.40
2018-03-17T01:51:31.163Z,87.30
2018-03-17T01:52:31.158Z,87.21
2018-03-17T01:53:31.151Z,87.30
2018-03-17T01:54:31.148Z,87.68
2018-03-17T01:55:31.141Z,87.40
2018-03-17T01:56:31.136Z,87.12
2018-03-17T01:57:31.129Z,86.83
2018-03-17T01:58:31.125Z,86.83
2018-03-17T01:59:31.119Z,87.02
2018-03-17T02:00:31.114Z,86.83
2018-03-17T02:01:31.109Z,85.88
2018-03-17T02:02:31.103Z,86.16
2018-03-17T02:03:31.097Z,86.16
2018-03-17T02:04:31.093Z,86.55
2018-03-17T02:05:31.090Z,86.55
2018-03-17T02:06:31.084Z,86.07
2018-03-17T02:07:31.076Z,87.02
2018-03-17T02:08:31.072Z,86.64
2018-03-17T02:09:31.066Z,86.74
2018-03-17T02:10:31.060Z,86.64
2018-03-17T02:11:31.061Z,86.83
2018-03-17T02:12:31.048Z,87.12
2018-03-17T02:13:31.044Z,87.21
2018-03-17T02:14:31.038Z,87.40
2018-03-17T02:15:31.034Z,87.83
2018-03-17T02:16:31.028Z,87.68
2018-03-17T02:17:31.022Z,88.25
2018-03-17T02:18:31.017Z,88.02
2018-03-17T02:19:31.011Z,88.21
2018-03-17T02:20:31.007Z,88.11
2018-03-17T02:21:31.003Z,88.30
2018-03-17T02:22:30.995Z,88.21
2018-03-17T02:23:30.990Z,88.02
2018-03-17T02:24:30.985Z,88.02
2018-03-17T02:25:30.976Z,87.83
2018-03-17T02:26:30.973Z,88.49
2018-03-17T02:27:30.971Z,88.02
2018-03-17T02:28:30.962Z,88.78
2018-03-17T02:29:30.956Z,88.40
2018-03-17T02:30:30.951Z,89.15
2018-03-17T02:31:30.946Z,88.78
2018-03-17T02:32:30.940Z,88.78
2018-03-17T02:33:30.934Z,88.78
2018-03-17T02:34:30.927Z,88.68
2018-03-17T02:35:30.929Z,88.87
2018-03-17T02:36:30.916Z,89.34
2018-03-17T02:37:30.911Z,89.34
2018-03-17T02:38:30.905Z,88.78
2018-03-17T02:39:30.899Z,88.68
2018-03-17T02:40:30.895Z,89.06
2018-03-17T02:41:30.887Z,88.87
2018-03-17T02:42:30.881Z,89.06
2018-03-17T02:43:30.876Z,88.68
2018-03-17T02:44:30.870Z,88.59
2018-03-17T02:45:30.866Z,88.59
2018-03-17T02:46:30.860Z,88.49
2018-03-17T02:47:30.854Z,88.59
2018-03-17T02:48:30.848Z,88.78
2018-03-17T02:49:30.841Z,88.82
2018-03-17T02:50:30.837Z,88.78
2018-03-17T02:51:30.832Z,88.35
2018-03-17T02:52:30.829Z,88.06
2018-03-17T02:53:30.820Z,87.59
2018-03-17T02:54:30.814Z,87.77
2018-03-17T02:55:30.810Z,87.68
2018-03-17T02:56:30.805Z,87.49
2018-03-17T02:57:30.799Z,87.49
2018-03-17T02:58:30.791Z,87.02
2018-03-17T02:59:30.787Z,87.59
2018-03-17T03:00:30.782Z,87.68
2018-03-17T03:01:30.776Z,87.59
2018-03-17T03:02:30.770Z,87.77
2018-03-17T03:03:30.765Z,87.49
2018-03-17T03:04:30.760Z,87.30
2018-03-17T03:05:30.754Z,86.93
2018-03-17T03:06:30.747Z,86.74
2018-03-17T03:07:30.742Z,87.49
2018-03-17T03:08:30.739Z,87.87
2018-03-17T03:09:30.736Z,87.87
2018-03-17T03:10:30.726Z,87.59
2018-03-17T03:11:30.722Z,87.77
2018-03-17T03:12:30.716Z,87.68
2018-03-17T03:13:30.709Z,88.21
2018-03-17T03:14:30.703Z,88.30
2018-03-17T03:15:30.699Z,89.06
2018-03-17T03:16:30.693Z,88.78
2018-03-17T03:17:30.686Z,88.40
2018-03-17T03:18:30.682Z,88.40
2018-03-17T03:19:30.677Z,88.59
2018-03-17T03:20:30.672Z,88.68
2018-03-17T03:21:30.665Z,88.16
2018-03-17T03:22:30.660Z,87.97
2018-03-17T03:23:30.657Z,88.16
2018-03-17T03:24:30.649Z,88.30
2018-03-17T03:25:30.642Z,88.25
2018-03-17T03:26:30.638Z,88.16
2018-03-17T03:27:30.633Z,88.16
2018-03-17T03:28:30.627Z,87.97
2018-03-17T03:29:30.620Z,87.59
2018-03-17T03:30:30.616Z,87.12
2018-03-17T03:31:30.612Z,86.93
2018-03-17T03:32:30.604Z,86.55
2018-03-17T03:33:30.598Z,86.93
2018-03-17T03:34:30.597Z,86.74
2018-03-17T03:35:30.592Z,86.83
2018-03-17T03:36:30.582Z,86.93
2018-03-17T03:37:30.576Z,87.30
2018-03-17T03:38:30.571Z,87.59
2018-03-17T03:39:30.566Z,87.59
2018-03-17T03:40:30.560Z,87.59
2018-03-17T03:41:30.559Z,87.92
2018-03-17T03:42:30.549Z,87.97
2018-03-17T03:43:30.544Z,88.06
2018-03-17T03:44:30.539Z,87.83
2018-03-17T03:45:30.532Z,87.68
2018-03-17T03:46:30.526Z,87.77
2018-03-17T03:47:30.521Z,88.06
2018-03-17T03:48:30.517Z,87.68
2018-03-17T03:49:30.511Z,87.68
2018-03-17T03:50:30.506Z,87.49
2018-03-17T03:51:30.501Z,87.68
2018-03-17T03:52:30.496Z,87.68
2018-03-17T03:53:30.489Z,87.87
2018-03-17T03:54:30.486Z,87.77
2018-03-17T03:55:30.479Z,87.21
2018-03-17T03:56:30.473Z,87.68
2018-03-17T03:57:30.467Z,87.30
2018-03-17T03:58:30.462Z,87.12
2018-03-17T03:59:30.457Z,87.49
2018-03-17T04:00:30.451Z,87.40
2018-03-17T04:01:30.444Z,87.35
2018-03-17T04:02:30.439Z,87.21
2018-03-17T04:03:30.434Z,87.54
2018-03-17T04:04:30.428Z,87.92
2018-03-17T04:05:30.423Z,87.64
2018-03-17T04:06:30.416Z,88.02
2018-03-17T04:07:30.412Z,88.11
2018-03-17T04:08:30.407Z,88.11
2018-03-17T04:09:30.401Z,88.87
2018-03-17T04:10:30.396Z,88.78
2018-03-17T04:11:30.390Z,88.59
2018-03-17T04:12:30.385Z,88.59
2018-03-17T04:13:30.379Z,88.78
2018-03-17T04:14:30.373Z,88.68
2018-03-17T04:15:30.369Z,88.59
2018-03-17T04:16:30.363Z,88.59
2018-03-17T04:17:30.356Z,88.68
2018-03-17T04:18:30.351Z,88.68
2018-03-17T04:19:30.346Z,89.06
2018-03-17T04:20:30.341Z,88.49
2018-03-17T04:21:30.333Z,89.06
2018-03-17T04:22:30.328Z,89.15
2018-03-17T04:23:30.323Z,88.87
2018-03-17T04:24:30.319Z,89.06
2018-03-17T04:25:30.311Z,88.87
2018-03-17T04:26:30.305Z,88.96
2018-03-17T04:27:30.300Z,88.59
2018-03-17T04:28:30.296Z,88.59
2018-03-17T04:29:30.292Z,88.21
2018-03-17T04:30:30.282Z,89.15
2018-03-17T04:31:30.278Z,88.87
2018-03-17T04:32:30.273Z,88.49
2018-03-17T04:33:30.266Z,88.49
2018-03-17T04:34:30.260Z,89.06
2018-03-17T04:35:30.256Z,88.59
2018-03-17T04:36:30.249Z,88.78
2018-03-17T04:37:30.243Z,88.21
2018-03-17T04:38:30.237Z,89.15
2018-03-17T04:39:30.233Z,88.59
2018-03-17T04:40:30.227Z,88.68
2018-03-17T04:41:30.221Z,88.68
2018-03-17T04:42:30.215Z,88.59
2018-03-17T04:43:30.210Z,88.68
2018-03-17T04:44:30.203Z,88.68
2018-03-17T04:45:30.198Z,89.15
2018-03-17T04:46:30.194Z,88.30
2018-03-17T04:47:30.188Z,88.30
2018-03-17T04:48:30.211Z,88.21
2018-03-17T04:49:30.175Z,88.30
2018-03-17T04:50:30.170Z,88.11
2018-03-17T04:51:30.163Z,88.02
2018-03-17T04:52:30.158Z,88.02
2018-03-17T04:53:30.152Z,87.73
2018-03-17T04:54:30.147Z,87.83
2018-03-17T04:55:30.141Z,88.49
2018-03-17T04:56:30.135Z,88.59
2018-03-17T04:57:30.133Z,88.11
2018-03-17T04:58:30.124Z,88.49
2018-03-17T04:59:30.117Z,88.30
2018-03-17T05:00:30.113Z,88.40
2018-03-17T05:01:30.107Z,88.49
2018-03-17T05:02:30.102Z,88.21
2018-03-17T05:03:30.099Z,88.49
2018-03-17T05:04:30.091Z,88.49
2018-03-17T05:05:30.085Z,88.30
2018-03-17T05:06:30.079Z,88.30
2018-03-17T05:07:30.074Z,88.87
2018-03-17T05:08:30.068Z,89.34
2018-03-17T05:09:30.061Z,88.87
2018-03-17T05:10:30.057Z,89.44
2018-03-17T05:11:30.051Z,89.25
2018-03-17T05:12:30.046Z,89.25
2018-03-17T05:13:30.040Z,89.72
2018-03-17T05:14:30.034Z,89.82
2018-03-17T05:15:30.029Z,90.01
2018-03-17T05:16:30.024Z,89.44
2018-03-17T05:17:30.017Z,89.53
2018-03-17T05:18:30.012Z,89.34
2018-03-17T05:19:30.007Z,88.96
2018-03-17T05:20:30.001Z,88.96
2018-03-17T05:21:29.993Z,89.34
2018-03-17T05:22:29.988Z,88.96
2018-03-17T05:23:29.983Z,89.15
2018-03-17T05:24:29.977Z,89.06
2018-03-17T05:25:29.970Z,88.68
2018-03-17T05:26:29.964Z,88.68
2018-03-17T05:27:29.960Z,88.68
2018-03-17T05:28:29.953Z,88.59
2018-03-17T05:29:29.947Z,88.68
2018-03-17T05:30:29.942Z,88.68
2018-03-17T05:31:29.937Z,88.68
2018-03-17T05:32:29.930Z,88.78
2018-03-17T05:33:29.924Z,88.30
2018-03-17T05:34:29.920Z,88.11
2018-03-17T05:35:29.952Z,88.21
2018-03-17T05:36:29.907Z,88.87
2018-03-17T05:37:29.903Z,88.68
2018-03-17T05:38:29.900Z,89.25
2018-03-17T05:39:29.890Z,89.25
2018-03-17T05:40:29.885Z,89.25
2018-03-17T05:41:29.878Z,88.78
2018-03-17T05:42:29.873Z,88.87
2018-03-17T05:43:29.868Z,89.06
2018-03-17T05:44:29.863Z,89.34
2018-03-17T05:45:29.856Z,89.34
2018-03-17T05:46:29.850Z,88.59
2018-03-17T05:47:29.844Z,88.87
2018-03-17T05:48:29.838Z,88.68
2018-03-17T05:49:29.833Z,88.59
2018-03-17T05:50:29.827Z,88.59
2018-03-17T05:51:29.822Z,88.02
2018-03-17T05:52:29.817Z,88.96
2018-03-17T05:53:29.810Z,88.49
2018-03-17T05:54:29.803Z,88.40
2018-03-17T05:55:29.799Z,89.06
2018-03-17T05:56:29.793Z,88.78
2018-03-17T05:57:29.788Z,88.21
2018-03-17T05:58:29.781Z,88.30
2018-03-17T05:59:29.775Z,88.11
2018-03-17T06:00:29.771Z,87.54
2018-03-17T06:01:29.764Z,88.02
2018-03-17T06:02:29.759Z,88.40
2018-03-17T06:03:29.753Z,88.21
2018-03-17T06:04:29.749Z,88.87
2018-03-17T06:05:29.742Z,89.34
2018-03-17T06:06:29.737Z,89.34
2018-03-17T06:07:29.733Z,89.44
2018-03-17T06:08:29.726Z,89.25
2018-03-17T06:09:29.719Z,89.53
2018-03-17T06:10:29.714Z,88.68
2018-03-17T06:11:29.707Z,88.30
2018-03-17T06:12:29.703Z,88.40
2018-03-17T06:13:29.696Z,87.45
2018-03-17T06:14:29.734Z,87.83
2018-03-17T06:15:29.683Z,87.54
2018-03-17T06:16:29.680Z,87.26
2018-03-17T06:17:29.672Z,87.92
2018-03-17T06:18:29.667Z,87.73
2018-03-17T06:19:29.661Z,87.73
2018-03-17T06:20:29.656Z,87.26
2018-03-17T06:21:29.651Z,87.02
2018-03-17T06:22:29.644Z,86.35
2018-03-17T06:23:29.640Z,85.60
2018-03-17T06:24:29.634Z,85.31
2018-03-17T06:25:29.630Z,84.74
2018-03-17T06:26:29.625Z,84.74
2018-03-17T06:27:29.618Z,84.74
2018-03-17T06:28:29.615Z,84.65
2018-03-17T06:29:29.611Z,85.03
2018-03-17T06:30:29.604Z,85.31
2018-03-17T06:31:29.598Z,84.84
2018-03-17T06:32:29.592Z,84.65
2018-03-17T06:33:29.589Z,84.46
2018-03-17T06:34:29.583Z,84.27
2018-03-17T06:35:29.578Z,84.36
2018-03-17T06:36:29.591Z,83.61
2018-03-17T06:37:29.570Z,83.94
2018-03-17T06:38:29.572Z,83.46
2018-03-17T06:39:29.562Z,82.89
2018-03-17T06:40:29.556Z,82.60
2018-03-17T06:41:29.551Z,81.85
2018-03-17T06:42:29.548Z,82.23
2018-03-17T06:43:29.542Z,82.42
2018-03-17T06:44:29.548Z,82.60
2018-03-17T06:45:29.534Z,83.27
2018-03-17T06:46:29.529Z,82.60
2018-03-17T06:47:29.527Z,83.17
2018-03-17T06:48:29.528Z,82.89
2018-03-17T06:49:29.518Z,81.98
2018-03-17T06:50:29.562Z,80.37
2018-03-17T06:51:29.510Z,79.61
2018-03-17T06:52:29.507Z,79.90
2018-03-17T06:53:29.504Z,79.65
2018-03-17T06:54:29.500Z,78.70
2018-03-17T06:55:29.498Z,76.75
2018-03-17T06:56:29.496Z,75.04
2018-03-17T06:57:29.492Z,73.30
2018-03-17T06:58:29.490Z,70.87
2018-03-17T06:59:29.490Z,68.81
2018-03-17T07:00:29.488Z,64.87
2018-03-17T07:01:29.487Z,62.15
2018-03-17T07:02:29.488Z,60.27
2018-03-17T07:03:29.491Z,58.55
2018-03-17T07:04:29.492Z,57.31
2018-03-17T07:05:29.493Z,57.53
2018-03-17T07:06:29.497Z,56.87
2018-03-17T07:07:29.501Z,56.04
2018-03-17T07:08:29.503Z,55.01
2018-03-17T07:09:29.505Z,54.44
2018-03-17T07:10:29.510Z,53.03
2018-03-17T07:11:29.516Z,52.29
2018-03-17T07:12:29.519Z,51.62
2018-03-17T07:13:29.523Z,51.21
2018-03-17T07:14:29.530Z,51.98
2018-03-17T07:15:29.535Z,53.00
2018-03-17T07:16:29.541Z,53.67
2018-03-17T07:17:29.550Z,54.82
2018-03-17T07:18:29.550Z,53.77
2018-03-17T07:19:29.555Z,54.53
2018-03-17T07:20:29.562Z,55.20
2018-03-17T07:21:29.565Z,55.01
2018-03-17T07:22:29.572Z,54.25
2018-03-17T07:23:29.579Z,53.99
2018-03-17T07:24:29.588Z,53.99
2018-03-17T07:25:29.589Z,54.47
2018-03-17T07:26:29.593Z,54.47
2018-03-17T07:27:29.599Z,53.70
2018-03-17T07:28:29.604Z,54.72
2018-03-17T07:29:29.607Z,54.70
2018-03-17T07:30:29.613Z,56.04
2018-03-17T07:31:29.620Z,56.96
2018-03-17T07:32:29.625Z,56.96
2018-03-17T07:33:29.632Z,56.96
2018-03-17T07:34:29.638Z,57.53
2018-03-17T07:35:29.642Z,57.75
2018-03-17T07:36:29.647Z,55.94
2018-03-17T07:37:29.652Z,56.60
2018-03-17T07:38:29.658Z,56.16
2018-03-17T07:39:29.664Z,55.30
2018-03-17T07:40:29.671Z,55.40
2018-03-17T07:41:29.675Z,55.49
2018-03-17T07:42:29.681Z,55.40
2018-03-17T07:43:29.686Z,55.46
2018-03-17T07:44:29.691Z,56.58
2018-03-17T07:45:29.697Z,57.06
2018-03-17T07:46:29.701Z,58.39
2018-03-17T07:47:29.707Z,57.34
2018-03-17T07:48:29.714Z,58.29
2018-03-17T07:49:29.717Z,58.14
2018-03-17T07:50:29.723Z,57.56
2018-03-17T07:51:29.729Z,56.70
2018-03-17T07:52:29.734Z,56.54
2018-03-17T07:53:29.739Z,56.06
2018-03-17T07:54:29.749Z,55.01
2018-03-17T07:55:29.751Z,54.91
2018-03-17T07:56:29.755Z,55.36
2018-03-17T07:57:29.760Z,57.09
2018-03-17T07:58:29.766Z,57.56
2018-03-17T07:59:29.770Z,57.56
2018-03-17T08:00:29.781Z,57.53
2018-03-17T08:01:29.780Z,58.77
2018-03-17T08:02:29.786Z,60.02
2018-03-17T08:03:29.792Z,58.77
2018-03-17T08:04:29.797Z,60.02
2018-03-17T08:05:29.802Z,58.77
2018-03-17T08:06:29.808Z,60.11
2018-03-17T08:07:29.812Z,59.92
2018-03-17T08:08:29.819Z,59.63
2018-03-17T08:09:29.824Z,59.92
2018-03-17T08:10:29.828Z,59.63
2018-03-17T08:11:29.833Z,59.16
2018-03-17T08:12:29.837Z,58.51
2018-03-17T08:13:29.841Z,57.37
2018-03-17T08:14:29.885Z,57.65
2018-03-17T08:15:29.856Z,56.13
2018-03-17T08:16:29.857Z,55.27
2018-03-17T08:17:29.863Z,56.04
2018-03-17T08:18:29.868Z,56.67
2018-03-17T08:19:29.876Z,57.24
2018-03-17T08:20:29.879Z,58.87
2018-03-17T08:21:29.884Z,59.73
2018-03-17T08:22:29.887Z,60.17
2018-03-17T08:23:29.892Z,61.04
2018-03-17T08:24:29.898Z,61.70
2018-03-17T08:25:29.902Z,61.41
2018-03-17T08:26:29.907Z,61.32
2018-03-17T08:27:29.913Z,62.24
2018-03-17T08:28:29.915Z,62.24
2018-03-17T08:29:29.918Z,63.29
2018-03-17T08:30:29.923Z,62.91
2018-03-17T08:31:29.928Z,63.83
2018-03-17T08:32:29.932Z,64.40
2018-03-17T08:33:29.936Z,64.43
2018-03-17T08:34:29.941Z,64.24
2018-03-17T08:35:29.944Z,62.75
2018-03-17T08:36:29.949Z,62.18
2018-03-17T08:37:29.954Z,60.97
2018-03-17T08:38:29.957Z,59.82
2018-03-17T08:39:30.011Z,58.65
2018-03-17T08:40:29.966Z,61.63
2018-03-17T08:41:29.968Z,60.39
2018-03-17T08:42:29.974Z,60.78
2018-03-17T08:43:29.977Z,60.39
2018-03-17T08:44:29.981Z,60.78
2018-03-17T08:45:29.983Z,59.92
2018-03-17T08:46:29.987Z,59.99
2018-03-17T08:47:29.990Z,62.27
2018-03-17T08:48:29.995Z,62.43
2018-03-17T08:49:29.996Z,64.91
2018-03-17T08:50:29.999Z,64.43
2018-03-17T08:51:30.004Z,64.28
2018-03-17T08:52:30.007Z,62.75
2018-03-17T08:53:30.008Z,62.65
2018-03-17T08:54:30.012Z,62.18
2018-03-17T08:55:30.016Z,61.35
2018-03-17T08:56:30.321Z,61.04
2018-03-17T08:57:30.020Z,61.96
2018-03-17T08:58:30.023Z,62.08
2018-03-17T08:59:30.027Z,62.11
2018-03-17T09:00:30.035Z,61.10
2018-03-17T09:01:30.033Z,59.22
2018-03-17T09:02:30.039Z,55.64
2018-03-17T09:03:30.043Z,54.68
2018-03-17T09:04:30.049Z,54.71
2018-03-17T09:05:30.054Z,54.88
2018-03-17T09:06:30.058Z,54.90
2018-03-17T09:07:30.066Z,53.75
2018-03-17T09:08:30.071Z,51.77
2018-03-17T09:09:30.078Z,52.83
2018-03-17T09:10:30.083Z,51.77
2018-03-17T09:11:30.089Z,51.87
2018-03-17T09:12:30.096Z,50.20
2018-03-17T09:13:30.101Z,48.88
2018-03-17T09:14:30.110Z,47.20
2018-03-17T09:15:30.169Z,45.01
2018-03-17T09:16:30.126Z,43.96
2018-03-17T09:17:30.135Z,44.23
2018-03-17T09:18:30.142Z,44.90
2018-03-17T09:19:30.150Z,45.50
2018-03-17T09:20:30.157Z,48.68
2018-03-17T09:21:30.164Z,52.10
2018-03-17T09:22:30.173Z,55.01
2018-03-17T09:23:30.182Z,57.28
2018-03-17T09:24:30.189Z,58.58
2018-03-17T09:25:30.191Z,59.53
2018-03-17T09:26:30.199Z,59.63
2018-03-17T09:27:30.204Z,58.70
2018-03-17T09:28:30.211Z,57.46
2018-03-17T09:29:30.264Z,57.56
2018-03-17T09:30:30.220Z,57.46
2018-03-17T09:31:30.225Z,57.56
2018-03-17T09:32:30.232Z,56.51
2018-03-17T09:33:30.236Z,56.54
2018-03-17T09:34:30.243Z,55.87
2018-03-17T09:35:30.249Z,55.20
2018-03-17T09:36:30.254Z,55.40
2018-03-17T09:37:30.266Z,55.77
2018-03-17T09:38:30.264Z,56.54
2018-03-17T09:39:30.270Z,57.40
2018-03-17T09:40:30.276Z,57.46
2018-03-17T09:41:30.280Z,58.14
2018-03-17T09:42:30.287Z,57.85
2018-03-17T09:43:30.290Z,57.37
2018-03-17T09:44:30.296Z,57.28
2018-03-17T09:45:30.302Z,57.68
2018-03-17T09:46:30.305Z,58.14
2018-03-17T09:47:30.311Z,58.70
2018-03-17T09:48:30.318Z,59.19
2018-03-17T09:49:30.320Z,58.64
2018-03-17T09:50:30.331Z,58.26
2018-03-17T09:51:30.331Z,58.64
2018-03-17T09:52:30.337Z,56.60
2018-03-17T09:53:30.341Z,57.40
2018-03-17T09:54:30.345Z,57.65
2018-03-17T09:55:30.351Z,58.33
2018-03-17T09:56:30.356Z,57.68
2018-03-17T09:57:30.359Z,57.46
2018-03-17T09:58:30.364Z,58.39
2018-03-17T09:59:30.369Z,59.53
2018-03-17T10:00:30.377Z,60.30
2018-03-17T10:01:30.376Z,60.87
2018-03-17T10:02:30.380Z,60.46
2018-03-17T10:03:30.392Z,60.78
2018-03-17T10:04:30.388Z,61.83
2018-03-17T10:05:30.389Z,60.97
2018-03-17T10:06:30.394Z,61.35
2018-03-17T10:07:30.398Z,62.30
2018-03-17T10:08:30.401Z,62.68
2018-03-17T10:09:30.404Z,63.29
2018-03-17T10:10:30.406Z,62.71
2018-03-17T10:11:30.411Z,61.10
2018-03-17T10:12:30.415Z,60.90
2018-03-17T10:13:30.417Z,62.15
2018-03-17T10:14:30.421Z,59.85
2018-03-17T10:15:30.423Z,58.36
2018-03-17T10:16:30.427Z,57.87
2018-03-17T10:17:30.429Z,58.04
2018-03-17T10:18:30.431Z,57.85
2018-03-17T10:19:30.434Z,59.66
2018-03-17T10:20:30.438Z,59.28
2018-03-17T10:21:30.440Z,59.44
2018-03-17T10:22:30.443Z,59.99
2018-03-17T10:23:30.449Z,61.04
2018-03-17T10:24:30.449Z,61.63
2018-03-17T10:25:30.450Z,61.83
2018-03-17T10:26:30.456Z,61.54
2018-03-17T10:27:30.454Z,61.73
2018-03-17T10:28:30.477Z,62.02
2018-03-17T10:29:30.478Z,62.68
2018-03-17T10:30:30.460Z,61.35
2018-03-17T10:31:30.461Z,60.78
2018-03-17T10:32:30.464Z,60.90
2018-03-17T10:33:30.465Z,60.52
2018-03-17T10:34:30.467Z,60.71
2018-03-17T10:35:30.470Z,60.81
2018-03-17T10:36:30.470Z,59.95
2018-03-17T10:37:30.472Z,60.81
2018-03-17T10:38:30.473Z,59.85
2018-03-17T10:39:30.475Z,58.51
2018-03-17T10:40:30.478Z,58.33
2018-03-17T10:41:30.481Z,58.33
2018-03-17T10:42:30.479Z,59.82
2018-03-17T10:43:30.482Z,60.11
2018-03-17T10:44:30.484Z,59.25
2018-03-17T10:45:30.486Z,60.65
2018-03-17T10:46:30.487Z,60.84
2018-03-17T10:47:30.492Z,60.36
2018-03-17T10:48:30.491Z,60.65
2018-03-17T10:49:30.490Z,60.75
2018-03-17T10:50:30.493Z,60.55
2018-03-17T10:51:30.493Z,60.84
2018-03-17T10:52:30.495Z,61.22
2018-03-17T10:53:30.495Z,60.55
2018-03-17T10:54:30.499Z,60.55
2018-03-17T10:55:30.498Z,60.84
2018-03-17T10:56:30.501Z,60.91
2018-03-17T10:57:30.498Z,61.67
2018-03-17T10:58:30.500Z,62.24
2018-03-17T10:59:30.500Z,62.72
2018-03-17T11:00:30.500Z,63.00
2018-03-17T11:01:30.502Z,63.76
2018-03-17T11:02:30.503Z,63.67
2018-03-17T11:03:30.503Z,63.67
2018-03-17T11:04:30.503Z,63.86
2018-03-17T11:05:30.504Z,63.39
2018-03-17T11:06:30.503Z,63.20
2018-03-17T11:07:30.505Z,63.29
2018-03-17T11:08:30.505Z,62.91
2018-03-17T11:09:30.504Z,62.72
2018-03-17T11:10:30.506Z,62.72
2018-03-17T11:11:30.513Z,62.15
2018-03-17T11:12:30.508Z,61.76
2018-03-17T11:13:30.506Z,61.96
2018-03-17T11:14:30.507Z,61.96
2018-03-17T11:15:30.508Z,62.72
2018-03-17T11:16:30.507Z,63.57
2018-03-17T11:17:30.509Z,64.62
2018-03-17T11:18:30.509Z,65.77
2018-03-17T11:19:30.510Z,67.20
2018-03-17T11:20:30.510Z,68.44
2018-03-17T11:21:30.510Z,68.15
2018-03-17T11:22:30.512Z,66.91
2018-03-17T11:23:30.511Z,66.63
2018-03-17T11:24:30.511Z,67.58
2018-03-17T11:25:30.515Z,67.86
2018-03-17T11:26:30.509Z,67.86
2018-03-17T11:27:30.511Z,67.29
2018-03-17T11:28:30.569Z,67.86
2018-03-17T11:29:30.510Z,67.58
2018-03-17T11:30:30.511Z,67.29
2018-03-17T11:31:30.511Z,67.96
2018-03-17T11:32:30.511Z,68.82
2018-03-17T11:33:30.510Z,68.63
2018-03-17T11:34:30.511Z,68.34
2018-03-17T11:35:30.511Z,69.20
2018-03-17T11:36:30.512Z,69.10
2018-03-17T11:37:30.512Z,69.01
2018-03-17T11:38:30.511Z,69.58
2018-03-17T11:39:30.513Z,69.29
2018-03-17T11:40:30.512Z,69.68
2018-03-17T11:41:30.518Z,69.23
2018-03-17T11:42:30.515Z,68.24
2018-03-17T11:43:30.514Z,68.72
2018-03-17T11:44:30.516Z,68.72
2018-03-17T11:45:30.514Z,69.26
2018-03-17T11:46:30.797Z,69.54
2018-03-17T11:47:30.516Z,69.93
2018-03-17T11:48:30.516Z,70.21
2018-03-17T11:49:30.515Z,70.12
2018-03-17T11:50:30.515Z,70.78
2018-03-17T11:51:30.518Z,70.97
2018-03-17T11:52:30.518Z,71.36
2018-03-17T11:53:30.516Z,71.51
2018-03-17T11:54:30.518Z,71.98
2018-03-17T11:55:30.521Z,72.65
2018-03-17T11:56:30.519Z,73.80
2018-03-17T11:57:30.517Z,73.57
2018-03-17T11:58:30.518Z,73.66
2018-03-17T11:59:30.517Z,73.80
2018-03-17T12:00:30.518Z,73.70
2018-03-17T12:01:30.517Z,73.32
2018-03-17T12:02:30.516Z,73.03
2018-03-17T12:03:30.517Z,72.65
2018-03-17T12:04:30.517Z,72.65
2018-03-17T12:05:30.516Z,72.88
2018-03-17T12:06:30.516Z,71.83
2018-03-17T12:07:30.517Z,71.07
2018-03-17T12:08:30.517Z,72.21
2018-03-17T12:09:30.515Z,71.83
2018-03-17T12:10:30.515Z,72.31
2018-03-17T12:11:30.516Z,71.93
2018-03-17T12:12:30.517Z,72.17
2018-03-17T12:13:30.515Z,72.65
2018-03-17T12:14:30.516Z,73.70
2018-03-17T12:15:30.517Z,73.70
2018-03-17T12:16:30.515Z,74.18
2018-03-17T12:17:30.520Z,73.99
2018-03-17T12:18:30.515Z,74.24
2018-03-17T12:19:30.515Z,74.80
2018-03-17T12:20:30.518Z,74.46
2018-03-17T12:21:30.515Z,74.46
2018-03-17T12:22:30.515Z,73.99
2018-03-17T12:23:30.515Z,73.99
2018-03-17T12:24:30.544Z,73.41
2018-03-17T12:25:30.513Z,73.61
2018-03-17T12:26:30.512Z,73.70
2018-03-17T12:27:30.512Z,73.32
2018-03-17T12:28:30.513Z,73.80
2018-03-17T12:29:30.511Z,73.70
2018-03-17T12:30:30.512Z,74.27
2018-03-17T12:31:30.511Z,74.21
2018-03-17T12:32:30.511Z,73.55
2018-03-17T12:33:30.508Z,73.36
2018-03-17T12:34:30.509Z,72.21
2018-03-17T12:35:30.509Z,72.21
2018-03-17T12:36:30.509Z,71.73
2018-03-17T12:37:30.508Z,71.83
2018-03-17T12:38:30.508Z,72.08
2018-03-17T12:39:30.507Z,72.75
2018-03-17T12:40:30.519Z,73.32
2018-03-17T12:41:30.507Z,73.51
2018-03-17T12:42:30.507Z,73.03
2018-03-17T12:43:30.506Z,71.70
2018-03-17T12:44:30.505Z,72.52
2018-03-17T12:45:30.504Z,72.52
2018-03-17T12:46:30.504Z,73.57
2018-03-17T12:47:30.558Z,74.58
2018-03-17T12:48:30.503Z,74.96
2018-03-17T12:49:30.500Z,75.72
2018-03-17T12:50:30.501Z,76.35
2018-03-17T12:51:30.499Z,77.11
2018-03-17T12:52:30.499Z,77.68